createdAt,value
2019-05-25T00:00:59.073Z,39.81
2019-05-25T00:03:29.057Z,40.19
2019-05-25T00:08:48.014Z,41.75
2019-05-25T00:11:18.282Z,41.46
2019-05-25T00:14:07.300Z,41.11
2019-05-25T00:16:37.452Z,40.95
2019-05-25T00:19:45.236Z,40.41
2019-05-25T00:22:15.509Z,39.90
2019-05-25T00:27:57.830Z,39.82
2019-05-25T00:30:30.103Z,39.75
2019-05-25T00:33:00.170Z,39.78
2019-05-25T00:35:30.191Z,39.12
2019-05-25T00:38:00.449Z,39.77
2019-05-25T00:40:30.636Z,40.25
2019-05-25T00:43:00.662Z,40.46
2019-05-25T00:45:30.772Z,41.04
2019-05-25T00:51:00.892Z,42.40
2019-05-25T00:54:01.111Z,42.21
2019-05-25T00:56:21.394Z,39.71
2019-05-25T00:59:22.058Z,39.41
2019-05-25T01:01:42.709Z,40.10
2019-05-25T01:04:32.629Z,40.04
2019-05-25T01:07:03.462Z,40.04
2019-05-25T01:09:55.618Z,40.30
2019-05-25T01:12:37.350Z,39.96
2019-05-25T01:15:15.615Z,39.96
2019-05-25T01:18:07.732Z,39.58
2019-05-25T01:23:46.126Z,39.13
2019-05-25T01:26:49.125Z,39.12
2019-05-25T01:29:40.008Z,39.17
2019-05-25T01:32:47.876Z,38.89
2019-05-25T01:38:53.168Z,38.67
2019-05-25T01:41:56.466Z,39.14
2019-05-25T01:47:28.482Z,39.83
2019-05-25T01:54:05.446Z,40.62
2019-05-25T01:56:46.948Z,40.08
2019-05-25T01:59:39.424Z,40.08
2019-05-25T02:02:29.220Z,40.54
2019-05-25T02:05:19.167Z,40.54
2019-05-25T02:08:11.738Z,40.95
2019-05-25T02:11:04.421Z,40.91
2019-05-25T02:13:14.084Z,40.89
2019-05-25T02:19:31.618Z,39.36
2019-05-25T02:22:34.412Z,39.99
2019-05-25T02:25:17.209Z,40.14
2019-05-25T02:27:37.606Z,39.61
2019-05-25T02:32:57.088Z,39.98
2019-05-25T02:35:28.005Z,39.66
2019-05-25T02:37:58.421Z,39.75
2019-05-25T02:40:28.380Z,38.84
2019-05-25T02:42:59.285Z,38.84
2019-05-25T02:48:52.477Z,39.40
2019-05-25T02:54:24.023Z,40.20
2019-05-25T02:57:14.188Z,40.31
2019-05-25T03:00:36.970Z,40.47
2019-05-25T03:03:29.863Z,40.42
2019-05-25T03:06:13.251Z,41.15
2019-05-25T03:09:22.214Z,41.84
2019-05-25T03:15:49.043Z,42.06
2019-05-25T03:18:19.092Z,42.12
2019-05-25T03:23:31.845Z,42.79
2019-05-25T03:28:44.075Z,42.78
2019-05-25T03:34:14.942Z,43.66
2019-05-25T03:37:04.820Z,44.43
2019-05-25T03:39:45.301Z,44.87
2019-05-25T03:42:34.888Z,44.87
2019-05-25T03:48:16.148Z,44.53
2019-05-25T03:51:05.255Z,44.32
2019-05-25T03:56:19.923Z,43.91
2019-05-25T04:01:49.189Z,44.08
2019-05-25T04:04:19.345Z,43.74
2019-05-25T04:09:59.376Z,44.53
2019-05-25T04:12:52.582Z,44.92
2019-05-25T04:15:53.236Z,45.16
2019-05-25T04:19:02.176Z,44.70
2019-05-25T04:21:32.957Z,44.15
2019-05-25T04:24:07.511Z,43.92
2019-05-25T04:29:58.971Z,43.48
2019-05-25T04:32:31.249Z,43.04
2019-05-25T04:35:03.767Z,42.60
2019-05-25T04:37:36.406Z,41.82
2019-05-25T04:43:14.313Z,39.86
2019-05-25T04:45:44.335Z,40.40
2019-05-25T04:49:04.439Z,40.96
2019-05-25T04:52:19.424Z,41.43
2019-05-25T04:54:29.391Z,40.25
2019-05-25T04:57:18.965Z,38.59
2019-05-25T04:59:49.787Z,37.68
2019-05-25T05:02:20.676Z,37.87
2019-05-25T05:04:50.695Z,37.82
2019-05-25T05:10:30.667Z,36.31
2019-05-25T05:13:20.480Z,33.57
2019-05-25T05:15:51.345Z,33.57
2019-05-25T05:18:33.492Z,32.18
2019-05-25T05:21:22.734Z,32.18
2019-05-25T05:32:31.758Z,31.58
2019-05-25T05:35:01.749Z,31.55
2019-05-25T05:37:31.870Z,31.89
2019-05-25T05:40:02.029Z,32.41
2019-05-25T05:42:32.672Z,31.81
2019-05-25T05:45:23.810Z,30.85
2019-05-25T05:47:53.894Z,30.85
2019-05-25T05:50:24.727Z,28.87
2019-05-25T05:52:54.932Z,29.17
2019-05-25T05:58:52.337Z,29.17
2019-05-25T06:01:22.485Z,28.24
2019-05-25T06:03:52.520Z,27.91
2019-05-25T06:06:41.557Z,27.56
2019-05-25T06:09:11.549Z,27.37
2019-05-25T06:11:41.642Z,27.42
2019-05-25T06:20:49.913Z,28.22
2019-05-25T06:23:20.710Z,28.25
2019-05-25T06:25:50.714Z,27.58
2019-05-25T06:28:39.826Z,26.98
2019-05-25T06:31:11.930Z,27.56
2019-05-25T06:37:09.202Z,28.13
2019-05-25T06:39:39.251Z,27.05
2019-05-25T06:42:27.998Z,26.74
2019-05-25T06:44:58.075Z,26.46
2019-05-25T06:50:08.555Z,24.73
2019-05-25T06:52:38.680Z,24.96
2019-05-25T06:55:08.856Z,24.95
2019-05-25T06:57:43.657Z,24.07
2019-05-25T07:06:24.256Z,23.01
2019-05-25T07:08:42.669Z,23.29
2019-05-25T07:14:43.197Z,22.99
2019-05-25T07:17:13.789Z,23.38
2019-05-25T07:20:14.687Z,23.29
2019-05-25T07:22:45.294Z,23.45
2019-05-25T07:25:15.430Z,23.38
2019-05-25T07:27:58.946Z,22.54
2019-05-25T07:40:11.593Z,24.12
2019-05-25T07:43:00.693Z,23.76
2019-05-25T07:46:00.513Z,23.18
2019-05-25T07:54:15.857Z,23.37
2019-05-25T07:56:59.042Z,23.20
2019-05-25T07:59:47.939Z,22.57
2019-05-25T08:02:18.078Z,22.83
2019-05-25T08:05:06.957Z,22.38
2019-05-25T08:07:41.589Z,21.93
2019-05-25T08:10:50.903Z,21.60
2019-05-25T08:13:21.203Z,21.19
2019-05-25T08:15:51.001Z,21.49
2019-05-25T08:18:39.855Z,20.79
2019-05-25T08:21:10.043Z,20.48
2019-05-25T08:23:58.889Z,20.70
2019-05-25T08:27:00.900Z,20.33
2019-05-25T08:32:55.086Z,19.89
2019-05-25T08:39:02.080Z,20.29
2019-05-25T08:41:32.210Z,20.50
2019-05-25T08:44:21.061Z,20.88
2019-05-25T08:46:51.102Z,20.49
2019-05-25T08:49:40.257Z,20.08
2019-05-25T08:52:29.396Z,19.77
2019-05-25T08:54:59.597Z,19.98
2019-05-25T08:57:29.581Z,19.69
2019-05-25T09:00:18.443Z,19.19
2019-05-25T09:02:48.544Z,18.66
2019-05-25T09:05:18.649Z,17.49
2019-05-25T09:07:50.475Z,17.06
2019-05-25T09:10:20.575Z,17.17
2019-05-25T09:12:52.489Z,16.41
2019-05-25T09:15:50.973Z,16.54
2019-05-25T09:21:39.048Z,17.09
2019-05-25T09:24:21.808Z,17.50
2019-05-25T09:26:45.969Z,16.90
2019-05-25T09:29:36.850Z,17.10
2019-05-25T09:35:29.981Z,16.16
2019-05-25T09:44:14.192Z,16.86
2019-05-25T09:47:04.259Z,16.82
2019-05-25T09:50:05.454Z,16.70
2019-05-25T09:52:28.389Z,16.15
2019-05-25T09:57:42.309Z,15.57
2019-05-25T10:03:36.683Z,14.62
2019-05-25T10:06:12.548Z,14.83
2019-05-25T10:08:40.013Z,15.42
2019-05-25T10:11:11.422Z,15.75
2019-05-25T10:19:29.691Z,13.09
2019-05-25T10:24:53.239Z,13.96
2019-05-25T10:27:28.130Z,13.80
2019-05-25T10:39:27.917Z,14.52
2019-05-25T10:41:50.246Z,15.27
2019-05-25T10:50:21.183Z,16.18
2019-05-25T10:53:04.736Z,15.96
2019-05-25T10:55:26.684Z,15.51
2019-05-25T10:57:58.484Z,14.13
2019-05-25T11:00:32.531Z,14.13
2019-05-25T11:03:23.175Z,15.81
2019-05-25T11:05:54.737Z,15.26
2019-05-25T11:08:45.512Z,16.77
2019-05-25T11:11:36.516Z,16.77
2019-05-25T11:14:27.148Z,17.39
2019-05-25T11:16:58.772Z,15.57
2019-05-25T11:22:42.354Z,16.90
2019-05-25T11:25:43.458Z,17.82
2019-05-25T11:28:53.094Z,16.53
2019-05-25T11:36:53.949Z,15.99
2019-05-25T11:42:09.523Z,18.81
2019-05-25T11:45:01.405Z,18.80
2019-05-25T11:47:35.407Z,18.51
2019-05-25T11:50:46.736Z,17.48
2019-05-25T11:53:33.745Z,15.92
2019-05-25T11:56:15.870Z,15.92
2019-05-25T12:04:46.190Z,15.18
2019-05-25T12:07:20.442Z,15.15
2019-05-25T12:09:52.427Z,15.46
2019-05-25T12:15:33.969Z,15.37
2019-05-25T12:18:46.041Z,14.94
2019-05-25T12:24:08.470Z,14.34
2019-05-25T12:26:40.235Z,15.04
2019-05-25T12:29:17.846Z,15.02
2019-05-25T12:31:49.665Z,15.41
2019-05-25T12:34:42.192Z,16.20
2019-05-25T12:37:14.377Z,16.20
2019-05-25T12:40:05.607Z,16.44
2019-05-25T12:42:56.504Z,16.54
2019-05-25T12:45:30.643Z,16.11
2019-05-25T12:48:21.571Z,14.97
2019-05-25T12:51:12.035Z,14.08
2019-05-25T12:53:46.490Z,14.09
2019-05-25T12:56:18.320Z,14.57
2019-05-25T12:59:09.552Z,14.72
2019-05-25T13:07:41.259Z,15.06
2019-05-25T13:10:32.016Z,15.29
2019-05-25T13:16:06.125Z,15.43
2019-05-25T13:18:44.816Z,14.92
2019-05-25T13:28:24.331Z,14.24
2019-05-25T13:31:10.674Z,14.75
2019-05-25T13:33:49.881Z,14.74
2019-05-25T13:43:23.961Z,15.80
2019-05-25T13:45:55.081Z,15.75
2019-05-25T13:48:48.163Z,15.99
2019-05-25T13:51:20.381Z,15.96
2019-05-25T13:54:41.531Z,15.47
2019-05-25T13:59:52.448Z,14.52
2019-05-25T14:03:00.286Z,14.17
2019-05-25T14:09:05.432Z,14.28
2019-05-25T14:15:14.596Z,14.55
2019-05-25T14:17:56.690Z,14.17
2019-05-25T14:21:35.246Z,14.95
2019-05-25T14:28:15.405Z,15.27
2019-05-25T14:34:42.095Z,16.22
2019-05-25T14:40:44.979Z,16.01
2019-05-25T14:46:39.202Z,15.80
2019-05-25T14:52:03.887Z,16.45
2019-05-25T14:54:37.171Z,16.45
2019-05-25T15:00:30.501Z,16.80
2019-05-25T15:03:02.367Z,16.27
2019-05-25T15:05:35.269Z,16.56
2019-05-25T15:11:27.984Z,15.65
2019-05-25T15:19:35.544Z,15.41
2019-05-25T15:28:11.557Z,15.83
2019-05-25T15:31:02.434Z,15.69
2019-05-25T15:33:34.491Z,15.47
2019-05-25T15:36:24.128Z,15.09
2019-05-25T15:42:06.588Z,14.40
2019-05-25T15:47:33.663Z,14.43
2019-05-25T15:50:37.500Z,14.92
2019-05-25T15:53:10.342Z,14.77
2019-05-25T15:55:42.161Z,15.20
2019-05-25T15:58:13.186Z,15.29
2019-05-25T16:04:15.703Z,15.04
2019-05-25T16:06:47.566Z,15.29
2019-05-25T16:09:19.575Z,15.10
2019-05-25T16:15:32.048Z,15.01
2019-05-25T16:18:15.734Z,14.90
2019-05-25T16:21:26.055Z,14.65
2019-05-25T16:27:07.078Z,14.72
2019-05-25T16:35:45.158Z,14.92
2019-05-25T16:38:16.274Z,15.04
2019-05-25T16:46:19.624Z,15.86
2019-05-25T16:51:50.468Z,15.74
2019-05-25T16:57:55.658Z,15.71
2019-05-25T17:00:32.675Z,15.74
2019-05-25T17:06:03.812Z,15.78
2019-05-25T17:08:56.084Z,15.88
2019-05-25T17:11:26.267Z,16.05
2019-05-25T17:13:57.880Z,16.22
2019-05-25T17:16:48.777Z,16.28
2019-05-25T17:19:19.954Z,16.28
2019-05-25T17:22:12.206Z,16.60
2019-05-25T17:24:43.244Z,16.83
2019-05-25T17:27:16.483Z,16.65
2019-05-25T17:30:08.420Z,16.68
2019-05-25T17:35:40.369Z,17.50
2019-05-25T17:38:30.354Z,17.50
2019-05-25T17:54:18.730Z,17.60
2019-05-25T17:56:50.044Z,18.06
2019-05-25T17:59:23.774Z,18.77
2019-05-25T18:04:45.821Z,19.71
2019-05-25T18:07:15.580Z,20.09
2019-05-25T18:13:07.257Z,20.52
2019-05-25T18:15:48.795Z,21.02
2019-05-25T18:18:39.688Z,21.27
2019-05-25T18:24:44.341Z,21.74
2019-05-25T18:27:46.556Z,22.02
2019-05-25T18:30:09.454Z,22.33
2019-05-25T18:38:45.296Z,26.09
2019-05-25T18:45:35.327Z,28.83
2019-05-25T18:47:55.249Z,29.64
2019-05-25T18:51:04.110Z,30.25
2019-05-25T18:59:23.075Z,31.23
2019-05-25T19:02:33.259Z,31.42
2019-05-25T19:05:16.607Z,31.60
2019-05-25T19:11:02.778Z,32.13
2019-05-25T19:13:33.742Z,32.30
2019-05-25T19:16:07.209Z,32.49
2019-05-25T19:19:00.767Z,32.36
2019-05-25T19:21:32.642Z,32.34
2019-05-25T19:24:03.750Z,32.29
2019-05-25T19:26:34.861Z,32.44
2019-05-25T19:29:36.740Z,32.69
2019-05-25T19:32:13.063Z,32.72
2019-05-25T19:34:58.633Z,32.75
2019-05-25T19:37:29.311Z,32.80
2019-05-25T19:42:54.770Z,32.48
2019-05-25T19:48:31.274Z,32.45
2019-05-25T20:04:23.282Z,32.93
2019-05-25T20:07:33.375Z,32.88
2019-05-25T20:10:15.943Z,32.64
2019-05-25T20:13:07.789Z,32.58
2019-05-25T20:22:03.505Z,32.87
2019-05-25T20:33:44.957Z,33.30
2019-05-25T20:36:24.929Z,33.35
2019-05-25T20:39:11.480Z,33.38
2019-05-25T20:42:02.180Z,33.04
2019-05-25T20:48:18.800Z,33.14
2019-05-25T20:54:17.122Z,33.57
2019-05-25T20:57:19.616Z,33.76
2019-05-25T21:03:05.290Z,34.09
2019-05-25T21:05:50.323Z,34.27
2019-05-25T21:08:36.086Z,34.16
2019-05-25T21:11:11.228Z,34.33
2019-05-25T21:14:39.988Z,34.32
2019-05-25T21:17:14.187Z,34.21
2019-05-25T21:19:45.821Z,34.60
2019-05-25T21:22:38.187Z,34.74
2019-05-25T21:25:48.460Z,34.80
2019-05-25T21:28:19.623Z,35.08
2019-05-25T21:30:50.842Z,35.32
2019-05-25T21:34:13.127Z,35.43
2019-05-25T21:36:53.495Z,35.50
2019-05-25T21:39:57.146Z,35.58
2019-05-25T21:43:01.417Z,35.56
2019-05-25T21:48:36.069Z,35.76
2019-05-25T21:51:30.058Z,35.91
2019-05-25T21:59:44.348Z,36.38
2019-05-25T22:07:45.487Z,36.78
2019-05-25T22:17:09.219Z,37.12
2019-05-25T22:19:47.694Z,37.30
2019-05-25T22:22:37.819Z,37.34
2019-05-25T22:28:22.691Z,37.48
2019-05-25T22:30:57.124Z,37.33
2019-05-25T22:33:38.750Z,37.30
2019-05-25T22:36:39.228Z,37.22
2019-05-25T22:38:50.984Z,37.24
2019-05-25T22:41:11.450Z,37.42
2019-05-25T22:44:21.826Z,37.72
2019-05-25T22:46:56.891Z,37.78
2019-05-25T22:57:58.119Z,38.17
2019-05-25T23:00:48.144Z,38.31
2019-05-25T23:09:21.156Z,38.40
2019-05-25T23:12:12.389Z,38.65
2019-05-25T23:14:43.488Z,38.71
2019-05-25T23:17:14.443Z,38.79
2019-05-25T23:23:33.319Z,38.99
2019-05-25T23:26:44.070Z,39.28
2019-05-25T23:29:18.704Z,39.11
2019-05-25T23:32:14.255Z,39.27
2019-05-25T23:38:43.168Z,39.40
2019-05-25T23:41:15.418Z,39.60
2019-05-25T23:44:24.682Z,39.62
2019-05-25T23:47:10.759Z,39.45
2019-05-25T23:56:08.077Z,40.07
2019-05-25T23:59:00.143Z,40.03
